Time;durP1;ratioP1;P1;durP2;ratioP2;P2;SDS_P1;SDS_P2;PMS_P1;PMS_P2;Temp;Humidity;BMP_temperature;BMP_pressure;BME280_temperature;BME280_humidity;BME280_pressure;Samples;Min_cycle;Max_cycle;Signal;HPM_P1;HPM_P2
2023/12/16 00:01:14;;;;;;;3.70;1.95;;;18.80;52.40;;;;;;5128250;27;45371;-66
2023/12/16 00:03:41;;;;;;;4.72;1.58;;;18.80;52.60;;;;;;5129406;27;45304;-66
2023/12/16 00:06:09;;;;;;;2.92;1.98;;;18.80;52.70;;;;;;5129221;27;45256;-66
2023/12/16 00:08:36;;;;;;;3.45;1.67;;;18.80;52.70;;;;;;5129466;27;45453;-65
2023/12/16 00:11:03;;;;;;;1.83;1.50;;;18.80;52.80;;;;;;5129092;27;45493;-65
2023/12/16 00:13:30;;;;;;;3.58;1.85;;;18.70;52.90;;;;;;5128865;27;45341;-66
2023/12/16 00:15:57;;;;;;;3.35;1.92;;;18.70;52.90;;;;;;5128983;27;45339;-66
2023/12/16 00:18:25;;;;;;;2.72;1.55;;;18.70;53.00;;;;;;5128356;27;45317;-66
2023/12/16 00:20:53;;;;;;;2.15;1.50;;;18.60;52.90;;;;;;5128831;27;45466;-66
2023/12/16 00:23:21;;;;;;;1.98;1.50;;;18.60;53.00;;;;;;5145091;27;45397;-65
2023/12/16 00:25:48;;;;;;;1.42;1.30;;;18.60;53.10;;;;;;5149459;27;45194;-65
2023/12/16 00:28:14;;;;;;;2.83;1.75;;;18.60;53.00;;;;;;5149848;27;45205;-65
2023/12/16 00:30:41;;;;;;;2.75;1.73;;;18.50;53.00;;;;;;5149376;27;47296;-66
2023/12/16 00:33:08;;;;;;;2.38;1.42;;;18.50;53.10;;;;;;5146705;27;45449;-71
2023/12/16 00:35:35;;;;;;;2.50;1.83;;;18.50;53.10;;;;;;5149320;27;45322;-66
2023/12/16 00:38:02;;;;;;;2.03;1.52;;;18.50;53.10;;;;;;5148959;27;45290;-65
2023/12/16 00:40:30;;;;;;;2.92;1.67;;;18.50;53.20;;;;;;5146971;27;45201;-66
2023/12/16 00:42:57;;;;;;;2.90;1.80;;;18.40;53.60;;;;;;5149237;27;45307;-65
2023/12/16 00:45:24;;;;;;;2.10;1.55;;;18.40;53.00;;;;;;5149404;27;45373;-66
2023/12/16 00:47:51;;;;;;;2.35;1.50;;;18.40;53.10;;;;;;5149858;27;45328;-66
2023/12/16 00:50:18;;;;;;;1.23;1.20;;;18.30;53.00;;;;;;5149307;27;45321;-66
2023/12/16 00:52:44;;;;;;;2.15;1.80;;;18.30;53.00;;;;;;5149110;27;45216;-65
2023/12/16 00:55:11;;;;;;;3.05;1.50;;;18.30;53.00;;;;;;5148969;27;45266;-66
2023/12/16 00:57:40;;;;;;;1.73;1.50;;;18.30;53.00;;;;;;5149429;27;45370;-68
2023/12/16 01:00:07;;;;;;;2.35;1.55;;;18.20;53.10;;;;;;5148630;27;46703;-66
2023/12/16 01:02:34;;;;;;;2.10;1.50;;;18.20;53.00;;;;;;5148315;27;45332;-66
2023/12/16 01:05:01;;;;;;;1.60;1.50;;;18.20;53.10;;;;;;5148996;27;45326;-66
2023/12/16 01:07:28;;;;;;;2.45;1.48;;;18.20;53.00;;;;;;5149474;27;45422;-66
2023/12/16 01:09:55;;;;;;;1.60;1.50;;;18.10;53.00;;;;;;5149102;27;45326;-66
2023/12/16 01:12:22;;;;;;;2.17;1.60;;;18.10;53.00;;;;;;5149004;27;45326;-66
2023/12/16 01:14:50;;;;;;;1.95;1.67;;;18.10;53.00;;;;;;5148935;27;45320;-66
2023/12/16 01:17:17;;;;;;;2.90;1.75;;;18.10;53.10;;;;;;5148972;27;45475;-66
2023/12/16 01:19:44;;;;;;;1.75;1.40;;;18.00;53.00;;;;;;5148741;27;46355;-66
2023/12/16 01:22:11;;;;;;;1.50;1.38;;;18.00;53.00;;;;;;5142058;27;45318;-66
2023/12/16 01:24:37;;;;;;;2.78;1.40;;;18.00;53.10;;;;;;5128566;27;45455;-66
2023/12/16 01:27:05;;;;;;;1.70;1.40;;;17.90;53.00;;;;;;5128420;27;45395;-66
2023/12/16 01:29:32;;;;;;;2.22;1.52;;;17.90;53.00;;;;;;5128348;27;45365;-66
2023/12/16 01:32:00;;;;;;;2.55;1.45;;;17.90;53.00;;;;;;5127911;27;45290;-66
2023/12/16 01:34:27;;;;;;;3.03;1.75;;;17.90;53.00;;;;;;5127879;27;45408;-66
2023/12/16 01:36:57;;;;;;;1.60;1.50;;;17.90;53.10;;;;;;5127914;27;45325;-65
2023/12/16 01:39:24;;;;;;;1.60;1.50;;;17.80;53.00;;;;;;5146991;27;45381;-66
2023/12/16 01:41:51;;;;;;;3.35;1.60;;;17.80;53.10;;;;;;5148610;27;45267;-66
2023/12/16 01:44:18;;;;;;;2.42;1.27;;;17.80;53.10;;;;;;5148493;27;45329;-66
2023/12/16 01:46:45;;;;;;;1.58;1.45;;;17.70;53.00;;;;;;5148645;27;45327;-66
2023/12/16 01:49:13;;;;;;;1.52;1.40;;;17.70;53.10;;;;;;5148241;27;45493;-66
2023/12/16 01:51:40;;;;;;;1.58;1.35;;;17.70;53.10;;;;;;5148381;27;45344;-66
2023/12/16 01:54:07;;;;;;;1.45;1.35;;;17.70;53.10;;;;;;5148578;27;45336;-66
2023/12/16 01:56:34;;;;;;;3.33;1.50;;;17.70;53.10;;;;;;5148461;27;45320;-66
2023/12/16 01:59:01;;;;;;;1.65;1.50;;;17.60;53.10;;;;;;5148087;27;46395;-67
2023/12/16 02:01:28;;;;;;;2.33;1.55;;;17.60;53.10;;;;;;5148887;27;45570;-66
2023/12/16 02:03:55;;;;;;;1.45;1.30;;;17.60;53.10;;;;;;5148351;27;45284;-66
2023/12/16 02:06:23;;;;;;;2.55;1.50;;;17.60;53.10;;;;;;5148678;27;45342;-66
2023/12/16 02:08:50;;;;;;;1.77;1.60;;;17.60;53.10;;;;;;5148265;27;45647;-66
2023/12/16 02:11:17;;;;;;;1.55;1.40;;;17.50;53.10;;;;;;5148498;27;45324;-66
2023/12/16 02:13:44;;;;;;;1.75;1.55;;;17.50;53.10;;;;;;5148434;27;45365;-66
2023/12/16 02:16:11;;;;;;;1.50;1.40;;;17.50;53.10;;;;;;5148300;27;45381;-66
2023/12/16 02:18:38;;;;;;;2.15;1.83;;;17.50;53.20;;;;;;5148042;27;45288;-66
2023/12/16 02:21:05;;;;;;;1.75;1.23;;;17.50;53.20;;;;;;5148223;27;45312;-66
2023/12/16 02:23:33;;;;;;;2.67;1.50;;;17.40;53.50;;;;;;5166790;27;45327;-66
2023/12/16 02:26:01;;;;;;;3.50;1.40;;;17.40;53.10;;;;;;5171506;27;45303;-65
2023/12/16 02:28:28;;;;;;;1.52;1.20;;;17.40;53.10;;;;;;5172236;27;45348;-66
2023/12/16 02:30:54;;;;;;;1.92;1.30;;;17.40;53.10;;;;;;5172652;27;45269;-66
2023/12/16 02:33:21;;;;;;;1.67;1.30;;;17.40;53.10;;;;;;5172766;27;45364;-66
2023/12/16 02:35:48;;;;;;;1.25;1.15;;;17.40;53.10;;;;;;5172434;27;45359;-66
2023/12/16 02:38:15;;;;;;;1.80;1.13;;;17.30;53.10;;;;;;5172093;27;46411;-66
2023/12/16 02:40:43;;;;;;;1.30;1.20;;;17.30;53.10;;;;;;5172445;27;45302;-67
2023/12/16 02:43:10;;;;;;;1.35;1.25;;;17.30;53.10;;;;;;5172694;27;45275;-65
2023/12/16 02:45:37;;;;;;;0.88;0.88;;;17.30;53.00;;;;;;5172841;27;45398;-65
2023/12/16 02:48:04;;;;;;;0.95;0.95;;;17.30;53.10;;;;;;5172178;27;45376;-66
2023/12/16 02:50:31;;;;;;;1.42;1.20;;;17.30;53.10;;;;;;5172332;27;45280;-66
2023/12/16 02:52:59;;;;;;;1.40;1.20;;;17.20;53.00;;;;;;5172381;27;45396;-66
2023/12/16 02:55:26;;;;;;;1.30;1.20;;;17.20;53.00;;;;;;5172439;27;45424;-66
2023/12/16 02:57:54;;;;;;;1.10;1.00;;;17.20;53.00;;;;;;5171883;27;46419;-65
2023/12/16 03:00:21;;;;;;;1.67;1.35;;;17.20;53.00;;;;;;5171896;27;45271;-65
2023/12/16 03:02:48;;;;;;;1.88;1.40;;;17.20;53.10;;;;;;5172104;27;45301;-65
2023/12/16 03:05:15;;;;;;;1.38;1.27;;;17.10;53.00;;;;;;5172129;27;45461;-66
2023/12/16 03:07:45;;;;;;;1.45;1.20;;;17.10;53.00;;;;;;5171701;27;46409;-65
2023/12/16 03:10:12;;;;;;;2.25;1.20;;;17.10;53.10;;;;;;5172131;27;45281;-66
2023/12/16 03:12:39;;;;;;;1.10;1.00;;;17.10;53.10;;;;;;5171368;27;45304;-65
2023/12/16 03:15:09;;;;;;;0.90;0.90;;;17.10;53.10;;;;;;5171891;27;45281;-65
2023/12/16 03:17:35;;;;;;;1.00;1.00;;;17.10;53.10;;;;;;5156157;27;47002;-66
2023/12/16 03:20:03;;;;;;;0.98;0.90;;;17.00;53.00;;;;;;5150570;27;45214;-65
2023/12/16 03:22:30;;;;;;;1.75;1.15;;;17.00;53.00;;;;;;5150837;27;45252;-66
2023/12/16 03:24:57;;;;;;;1.45;1.20;;;17.00;53.00;;;;;;5150755;27;45515;-65
2023/12/16 03:27:24;;;;;;;1.17;1.00;;;17.00;53.10;;;;;;5150600;27;46456;-66
2023/12/16 03:29:51;;;;;;;2.38;1.10;;;16.90;53.00;;;;;;5150468;27;45395;-65
2023/12/16 03:32:19;;;;;;;1.98;1.00;;;16.90;53.00;;;;;;5150734;27;45268;-65
2023/12/16 03:34:46;;;;;;;0.80;0.80;;;16.90;53.00;;;;;;5151048;27;45416;-68
2023/12/16 03:37:14;;;;;;;1.67;1.20;;;16.90;53.00;;;;;;5147804;27;45519;-65
2023/12/16 03:39:41;;;;;;;1.23;1.13;;;16.90;53.00;;;;;;5129265;27;45309;-65
2023/12/16 03:42:08;;;;;;;1.25;1.15;;;16.90;53.00;;;;;;5129270;27;45351;-65
2023/12/16 03:44:34;;;;;;;1.30;1.20;;;16.80;53.60;;;;;;5129856;27;45307;-66
2023/12/16 03:47:01;;;;;;;3.78;1.20;;;16.80;53.00;;;;;;5126479;27;45332;-66
2023/12/16 03:49:29;;;;;;;1.13;0.93;;;16.80;53.00;;;;;;5129574;27;45335;-66
2023/12/16 03:51:56;;;;;;;1.17;1.17;;;16.80;53.00;;;;;;5129564;27;45367;-65
2023/12/16 03:54:23;;;;;;;1.25;1.15;;;16.80;53.00;;;;;;5129669;27;45309;-65
2023/12/16 03:56:50;;;;;;;1.88;1.10;;;16.80;53.00;;;;;;5128429;27;46385;-65
2023/12/16 03:59:17;;;;;;;1.30;1.20;;;16.70;53.00;;;;;;5129283;27;45316;-65
2023/12/16 04:01:45;;;;;;;2.15;1.23;;;16.70;53.00;;;;;;5129370;27;45336;-65
2023/12/16 04:04:12;;;;;;;1.25;1.15;;;16.70;53.00;;;;;;5129525;27;45405;-65
2023/12/16 04:06:40;;;;;;;2.08;1.10;;;16.70;53.00;;;;;;5129118;27;45367;-65
2023/12/16 04:09:07;;;;;;;1.50;1.40;;;16.70;53.00;;;;;;5129035;27;45295;-65
2023/12/16 04:11:35;;;;;;;1.30;1.20;;;16.70;53.00;;;;;;5129282;27;45368;-66
2023/12/16 04:14:02;;;;;;;1.85;1.17;;;16.70;53.00;;;;;;5129318;27;45391;-65
2023/12/16 04:16:29;;;;;;;0.80;0.80;;;16.80;53.50;;;;;;5128714;27;47249;-65
2023/12/16 04:18:56;;;;;;;2.08;0.98;;;16.80;52.70;;;;;;5128882;27;45357;-65
2023/12/16 04:21:23;;;;;;;1.08;1.00;;;16.90;52.60;;;;;;5128793;27;45276;-65
2023/12/16 04:23:51;;;;;;;1.58;1.30;;;17.00;52.40;;;;;;5142600;27;45510;-65
2023/12/16 04:26:18;;;;;;;1.67;1.20;;;17.10;52.20;;;;;;5149457;27;46334;-65
2023/12/16 04:28:45;;;;;;;2.47;1.05;;;17.20;52.00;;;;;;5149670;27;45268;-65
2023/12/16 04:31:14;;;;;;;1.92;1.40;;;17.30;51.70;;;;;;5149682;27;45255;-66
2023/12/16 04:33:40;;;;;;;1.00;1.00;;;17.40;51.40;;;;;;5149807;27;45478;-68
2023/12/16 04:36:12;;;;;;;1.15;1.05;;;17.60;51.20;;;;;;5149328;27;45402;-65
2023/12/16 04:38:39;;;;;;;1.63;1.08;;;17.70;51.00;;;;;;5162322;27;45528;-65
2023/12/16 04:41:07;;;;;;;1.35;1.23;;;17.70;50.80;;;;;;5169921;27;45386;-65
2023/12/16 04:43:34;;;;;;;1.42;1.00;;;17.80;50.50;;;;;;5170109;27;45267;-65
2023/12/16 04:46:01;;;;;;;2.00;1.10;;;17.90;50.30;;;;;;5170122;27;46294;-65
2023/12/16 04:48:28;;;;;;;1.90;1.13;;;18.00;50.20;;;;;;5170193;27;45344;-65
2023/12/16 04:50:55;;;;;;;1.33;1.23;;;18.10;50.00;;;;;;5170426;27;45349;-65
2023/12/16 04:53:22;;;;;;;1.17;1.00;;;18.20;49.80;;;;;;5170522;27;45273;-65
2023/12/16 04:55:48;;;;;;;1.20;1.10;;;18.20;49.70;;;;;;5170237;27;47354;-65
2023/12/16 04:58:16;;;;;;;1.13;1.10;;;18.30;49.60;;;;;;5169872;27;45334;-65
2023/12/16 05:00:43;;;;;;;2.70;1.23;;;18.40;50.00;;;;;;5170193;27;45326;-65
2023/12/16 05:03:10;;;;;;;1.30;1.20;;;18.50;49.20;;;;;;5170269;27;45306;-65
2023/12/16 05:05:37;;;;;;;1.52;1.15;;;18.50;49.10;;;;;;5170018;27;46403;-65
2023/12/16 05:08:04;;;;;;;2.40;1.30;;;18.60;48.90;;;;;;5169817;27;45332;-65
2023/12/16 05:10:31;;;;;;;1.38;1.23;;;18.70;48.80;;;;;;5169986;27;45343;-66
2023/12/16 05:12:58;;;;;;;1.20;1.10;;;18.70;48.60;;;;;;5170175;27;45366;-65
2023/12/16 05:15:26;;;;;;;1.73;1.15;;;18.80;48.50;;;;;;5169653;27;46353;-66
2023/12/16 05:17:53;;;;;;;1.67;1.20;;;18.80;48.40;;;;;;5169558;27;45377;-65
2023/12/16 05:20:20;;;;;;;1.20;1.20;;;18.90;48.30;;;;;;5169802;27;45296;-65
2023/12/16 05:22:46;;;;;;;1.65;1.17;;;18.90;48.20;;;;;;5158027;27;45482;-66
2023/12/16 05:25:13;;;;;;;1.58;1.38;;;19.00;48.10;;;;;;5148030;27;46315;-65
2023/12/16 05:27:40;;;;;;;1.33;1.23;;;19.00;48.00;;;;;;5148704;27;45374;-68
2023/12/16 05:30:08;;;;;;;1.17;1.08;;;19.10;47.90;;;;;;5149101;27;45445;-65
2023/12/16 05:32:36;;;;;;;1.58;1.48;;;19.10;47.80;;;;;;5148961;27;45406;-65
2023/12/16 05:35:04;;;;;;;1.52;1.20;;;19.10;47.70;;;;;;5148398;27;46378;-66
2023/12/16 05:37:30;;;;;;;1.50;1.30;;;19.20;47.60;;;;;;5144626;27;45389;-68
2023/12/16 05:39:57;;;;;;;1.13;0.98;;;19.20;47.50;;;;;;5127796;27;45332;-66
2023/12/16 05:42:24;;;;;;;1.48;1.30;;;19.20;48.00;;;;;;5127731;27;45276;-68
2023/12/16 05:44:51;;;;;;;1.70;1.60;;;19.30;47.30;;;;;;5127478;27;46668;-66
2023/12/16 05:47:18;;;;;;;1.30;1.20;;;19.30;47.20;;;;;;5127486;27;45405;-66
2023/12/16 05:49:46;;;;;;;1.25;1.15;;;19.30;47.20;;;;;;5127789;27;45570;-65
2023/12/16 05:52:13;;;;;;;2.47;1.20;;;19.30;47.10;;;;;;5127930;27;45288;-65
2023/12/16 05:54:40;;;;;;;1.85;1.35;;;19.40;47.10;;;;;;5127287;27;46694;-66
2023/12/16 05:57:07;;;;;;;1.33;1.23;;;19.40;46.90;;;;;;5127373;27;45204;-66
2023/12/16 05:59:34;;;;;;;1.85;1.40;;;19.40;46.90;;;;;;5126611;27;45320;-66
2023/12/16 06:02:01;;;;;;;2.17;1.17;;;19.40;46.80;;;;;;5127470;27;45532;-65
2023/12/16 06:04:29;;;;;;;1.48;1.38;;;19.40;46.80;;;;;;5126948;27;47001;-65
2023/12/16 06:06:57;;;;;;;2.13;1.23;;;19.40;46.80;;;;;;5126616;27;45316;-65
2023/12/16 06:09:24;;;;;;;2.25;1.55;;;19.30;46.80;;;;;;5126837;27;45266;-65
2023/12/16 06:11:51;;;;;;;1.70;1.60;;;19.30;46.70;;;;;;5124706;27;45474;-66
2023/12/16 06:14:18;;;;;;;1.42;1.33;;;19.30;46.70;;;;;;5127099;27;45304;-65
2023/12/16 06:16:44;;;;;;;1.95;1.45;;;19.30;46.80;;;;;;5127245;27;45351;-65
2023/12/16 06:19:11;;;;;;;3.10;1.90;;;19.30;46.80;;;;;;5127086;27;45280;-66
2023/12/16 06:21:38;;;;;;;1.38;1.27;;;19.30;46.80;;;;;;5126270;27;45225;-65
2023/12/16 06:24:08;;;;;;;1.40;1.30;;;19.30;46.80;;;;;;5148043;27;47653;-66
2023/12/16 06:26:35;;;;;;;1.48;1.38;;;19.20;46.70;;;;;;5147848;27;45208;-65
2023/12/16 06:29:02;;;;;;;2.35;1.50;;;19.20;46.70;;;;;;5148052;27;45338;-66
2023/12/16 06:31:29;;;;;;;1.25;1.15;;;19.20;46.80;;;;;;5148130;27;45318;-68
2023/12/16 06:33:56;;;;;;;2.90;1.63;;;19.20;46.80;;;;;;5147600;27;45414;-66
2023/12/16 06:36:23;;;;;;;1.60;1.50;;;19.10;46.80;;;;;;5147623;27;45289;-68
2023/12/16 06:38:49;;;;;;;2.15;1.50;;;19.10;46.80;;;;;;5147243;27;45386;-66
2023/12/16 06:41:18;;;;;;;1.83;1.70;;;19.10;46.70;;;;;;5147768;27;45482;-66
2023/12/16 06:43:44;;;;;;;1.65;1.48;;;19.10;46.80;;;;;;5147492;27;45313;-66
2023/12/16 06:46:11;;;;;;;1.65;1.55;;;19.10;46.70;;;;;;5147553;27;45413;-66
2023/12/16 06:48:39;;;;;;;1.60;1.50;;;19.10;46.70;;;;;;5147707;27;45354;-66
2023/12/16 06:51:06;;;;;;;1.60;1.50;;;19.10;46.70;;;;;;5147412;27;45302;-66
2023/12/16 06:53:35;;;;;;;1.60;1.50;;;19.00;46.70;;;;;;5147741;27;45337;-66
2023/12/16 06:56:02;;;;;;;2.38;1.52;;;19.00;46.70;;;;;;5147592;27;45329;-66
2023/12/16 06:58:32;;;;;;;2.72;1.58;;;19.00;46.70;;;;;;5147374;27;45225;-66
2023/12/16 07:00:58;;;;;;;1.85;1.50;;;18.90;46.60;;;;;;5147643;27;45417;-66
2023/12/16 07:03:28;;;;;;;1.52;1.40;;;18.90;46.60;;;;;;5147268;27;46374;-66
2023/12/16 07:05:55;;;;;;;1.80;1.65;;;18.90;46.60;;;;;;5147156;27;45300;-66
2023/12/16 07:08:22;;;;;;;2.53;1.60;;;18.80;46.70;;;;;;5147285;27;45348;-66
2023/12/16 07:10:48;;;;;;;1.73;1.63;;;18.80;46.70;;;;;;5148462;27;45362;-66
2023/12/16 07:13:15;;;;;;;2.75;1.70;;;18.80;46.80;;;;;;5150681;27;47219;-66
2023/12/16 07:15:43;;;;;;;1.83;1.70;;;18.70;46.80;;;;;;5150659;27;45308;-66
2023/12/16 07:18:10;;;;;;;3.05;1.80;;;18.70;46.80;;;;;;5150424;27;45327;-67
2023/12/16 07:20:37;;;;;;;3.25;1.77;;;18.60;47.50;;;;;;5138161;27;45273;-66
2023/12/16 07:23:04;;;;;;;2.10;1.90;;;18.60;46.90;;;;;;5148391;27;45490;-66
2023/12/16 07:25:31;;;;;;;2.03;1.60;;;18.60;46.90;;;;;;5142569;27;45477;-65
2023/12/16 07:27:58;;;;;;;3.75;1.73;;;18.50;46.90;;;;;;5129861;27;45306;-66
2023/12/16 07:30:25;;;;;;;2.38;2.17;;;18.50;46.90;;;;;;5129976;27;45223;-66
2023/12/16 07:32:53;;;;;;;2.20;2.00;;;18.50;47.00;;;;;;5129420;27;45422;-66
2023/12/16 07:35:20;;;;;;;2.35;1.77;;;18.50;47.00;;;;;;5148337;27;45385;-66
2023/12/16 07:37:47;;;;;;;2.05;1.73;;;18.40;47.00;;;;;;5155661;27;45321;-66
2023/12/16 07:40:14;;;;;;;3.13;1.90;;;18.40;47.00;;;;;;5171637;27;45310;-66
2023/12/16 07:42:41;;;;;;;2.05;1.85;;;18.40;47.00;;;;;;5171224;27;45318;-66
2023/12/16 07:45:08;;;;;;;2.22;2.08;;;18.40;47.10;;;;;;5171481;27;45268;-66
2023/12/16 07:47:35;;;;;;;1.92;1.80;;;18.40;47.10;;;;;;5171617;27;45278;-66
2023/12/16 07:50:04;;;;;;;3.35;2.00;;;18.40;47.10;;;;;;5171967;27;45526;-66
2023/12/16 07:52:31;;;;;;;1.70;1.60;;;18.30;47.00;;;;;;5171165;27;46694;-66
2023/12/16 07:54:58;;;;;;;3.35;2.17;;;18.30;47.00;;;;;;5171608;27;45423;-66
2023/12/16 07:57:25;;;;;;;4.03;2.05;;;18.30;47.10;;;;;;5171278;27;45261;-66
2023/12/16 07:59:52;;;;;;;1.80;1.70;;;18.30;47.00;;;;;;5171512;27;45314;-66
2023/12/16 08:02:19;;;;;;;2.28;1.80;;;18.30;46.90;;;;;;5169992;27;45736;-66
2023/12/16 08:04:46;;;;;;;1.98;1.70;;;18.40;46.80;;;;;;5170491;27;45349;-65
2023/12/16 08:07:14;;;;;;;2.95;1.70;;;18.50;46.70;;;;;;5171221;27;45313;-66
2023/12/16 08:09:41;;;;;;;2.80;2.00;;;18.60;46.50;;;;;;5172970;27;45443;-66
2023/12/16 08:12:08;;;;;;;2.10;1.90;;;18.70;46.40;;;;;;5170690;27;46402;-65
2023/12/16 08:14:35;;;;;;;1.70;1.52;;;18.70;46.10;;;;;;5170554;27;45311;-65
2023/12/16 08:17:01;;;;;;;2.10;1.90;;;18.80;45.90;;;;;;5170756;27;45320;-65
2023/12/16 08:19:28;;;;;;;2.67;2.25;;;18.90;45.70;;;;;;5170674;27;45296;-65
2023/12/16 08:21:55;;;;;;;4.28;1.90;;;19.00;45.60;;;;;;5165892;27;46199;-66
2023/12/16 08:24:23;;;;;;;2.35;2.00;;;19.10;45.40;;;;;;5167194;27;45380;-66
2023/12/16 08:26:50;;;;;;;3.00;2.40;;;19.10;45.20;;;;;;5159938;27;45357;-66
2023/12/16 08:29:18;;;;;;;2.97;2.22;;;19.10;45.10;;;;;;5149745;27;45322;-65
2023/12/16 08:31:45;;;;;;;2.95;2.40;;;19.10;45.00;;;;;;5149459;27;46507;-65
2023/12/16 08:34:12;;;;;;;2.53;2.33;;;19.20;45.00;;;;;;5157812;27;45470;-66
2023/12/16 08:36:39;;;;;;;2.22;2.08;;;19.20;45.50;;;;;;5170550;27;45418;-66
2023/12/16 08:39:05;;;;;;;3.15;2.33;;;19.20;44.80;;;;;;5169850;27;45448;-66
2023/12/16 08:41:34;;;;;;;3.08;2.40;;;19.20;44.80;;;;;;5170184;27;45249;-66
2023/12/16 08:44:03;;;;;;;2.15;1.88;;;19.20;44.80;;;;;;5168541;27;45399;-67
2023/12/16 08:46:30;;;;;;;5.40;2.17;;;19.20;44.80;;;;;;5156821;27;45392;-66
2023/12/16 08:48:56;;;;;;;2.30;2.10;;;19.20;44.70;;;;;;5170317;27;45395;-66
2023/12/16 08:51:23;;;;;;;2.42;2.22;;;19.20;44.70;;;;;;5170392;27;45281;-67
2023/12/16 08:53:53;;;;;;;3.97;2.65;;;19.20;44.70;;;;;;5170164;27;45350;-66
2023/12/16 08:56:20;;;;;;;3.33;2.80;;;19.20;44.70;;;;;;5170192;27;45291;-66
2023/12/16 08:58:48;;;;;;;2.40;2.20;;;19.20;44.70;;;;;;5170475;27;45403;-66
2023/12/16 09:01:15;;;;;;;4.60;2.80;;;19.20;44.70;;;;;;5169050;27;45514;-66
2023/12/16 09:03:43;;;;;;;4.00;2.83;;;19.20;44.70;;;;;;5161551;27;45510;-66
2023/12/16 09:06:10;;;;;;;5.40;2.30;;;19.10;44.70;;;;;;5148886;27;45321;-65
2023/12/16 09:08:37;;;;;;;3.30;2.92;;;19.20;45.50;;;;;;5149150;27;45452;-65
2023/12/16 09:11:04;;;;;;;3.58;2.53;;;19.20;45.20;;;;;;5148787;27;46724;-65
2023/12/16 09:13:31;;;;;;;4.32;2.47;;;19.20;45.20;;;;;;5149118;27;46378;-67
2023/12/16 09:15:59;;;;;;;5.10;3.05;;;19.20;45.40;;;;;;5150286;27;45341;-67
2023/12/16 09:18:26;;;;;;;7.32;2.72;;;19.20;45.30;;;;;;5175457;27;45249;-65
2023/12/16 09:20:53;;;;;;;7.93;2.97;;;19.30;45.50;;;;;;5170734;27;46399;-71
2023/12/16 09:23:20;;;;;;;7.80;2.80;;;19.30;45.60;;;;;;5156595;27;45279;-67
2023/12/16 09:25:47;;;;;;;3.58;2.63;;;19.30;45.20;;;;;;5150976;27;45450;-65
2023/12/16 09:28:13;;;;;;;4.55;2.92;;;19.40;45.00;;;;;;5151029;27;45424;-66
2023/12/16 09:30:40;;;;;;;3.80;2.63;;;19.40;44.80;;;;;;5152543;27;45368;-64
2023/12/16 09:33:09;;;;;;;3.03;2.58;;;19.40;44.70;;;;;;5149106;27;45290;-64
2023/12/16 09:35:36;;;;;;;5.18;2.97;;;19.40;44.50;;;;;;5149587;27;45296;-65
2023/12/16 09:38:03;;;;;;;2.67;2.45;;;19.50;44.60;;;;;;5147026;27;45559;-68
2023/12/16 09:40:30;;;;;;;3.08;2.78;;;19.50;45.00;;;;;;5130361;27;47529;-68
2023/12/16 09:42:59;;;;;;;2.67;2.25;;;19.50;44.50;;;;;;5130379;27;45318;-68
2023/12/16 09:45:26;;;;;;;2.72;2.53;;;19.60;44.40;;;;;;5157556;27;45386;-69
2023/12/16 09:47:53;;;;;;;2.78;2.58;;;19.60;44.40;;;;;;5143021;27;45445;-70
2023/12/16 09:50:21;;;;;;;2.42;2.22;;;19.60;44.60;;;;;;5164695;27;46413;-68
2023/12/16 09:52:48;;;;;;;9.05;2.35;;;19.70;44.60;;;;;;5157541;27;45420;-71
2023/12/16 09:55:15;;;;;;;4.13;2.50;;;19.70;45.20;;;;;;5162891;27;45374;-70
2023/12/16 09:57:42;;;;;;;2.55;2.35;;;19.70;44.50;;;;;;5162684;27;45442;-73
2023/12/16 10:00:12;;;;;;;2.67;2.22;;;19.80;44.40;;;;;;5130644;27;45754;-65
2023/12/16 10:02:39;;;;;;;3.45;2.03;;;19.80;44.40;;;;;;5137378;27;45717;-65
2023/12/16 10:05:06;;;;;;;8.95;3.15;;;19.80;44.60;;;;;;5138518;27;45658;-67
2023/12/16 10:07:35;;;;;;;2.42;2.22;;;19.90;44.40;;;;;;5142758;27;45362;-70
2023/12/16 10:10:02;;;;;;;8.88;2.55;;;19.90;44.30;;;;;;5142186;27;45378;-67
2023/12/16 10:12:33;;;;;;;3.05;2.55;;;20.00;44.30;;;;;;5143530;27;45448;-66
2023/12/16 10:15:00;;;;;;;3.60;2.53;;;20.00;44.30;;;;;;5148149;27;45438;-67
2023/12/16 10:17:28;;;;;;;2.38;2.10;;;20.00;44.20;;;;;;5133973;27;45277;-64
2023/12/16 10:19:55;;;;;;;5.72;2.30;;;19.90;44.30;;;;;;5143533;27;45298;-66
2023/12/16 10:22:22;;;;;;;2.80;2.33;;;19.90;44.40;;;;;;5146058;27;45488;-65
2023/12/16 10:24:50;;;;;;;3.45;2.58;;;20.00;44.30;;;;;;5147902;27;45435;-67
2023/12/16 10:27:18;;;;;;;3.17;2.65;;;19.90;44.10;;;;;;5162056;27;45400;-72
2023/12/16 10:29:45;;;;;;;3.08;2.70;;;19.90;44.30;;;;;;5146746;27;46501;-67
2023/12/16 10:32:12;;;;;;;13.75;3.60;;;20.00;44.40;;;;;;5137209;27;45215;-64
2023/12/16 10:34:39;;;;;;;21.95;3.70;;;20.00;44.30;;;;;;5139562;27;45354;-65
2023/12/16 10:37:06;;;;;;;8.32;2.40;;;20.00;44.30;;;;;;5135207;27;45464;-66
2023/12/16 10:39:33;;;;;;;3.13;2.55;;;20.10;44.20;;;;;;5141563;27;46615;-66
2023/12/16 10:42:01;;;;;;;3.13;2.22;;;20.10;44.40;;;;;;5159083;27;45469;-69
2023/12/16 10:44:28;;;;;;;3.08;1.90;;;20.20;44.20;;;;;;5164759;27;45500;-73
2023/12/16 10:46:55;;;;;;;3.30;1.92;;;20.30;44.10;;;;;;5161131;27;45465;-63
2023/12/16 10:49:25;;;;;;;4.03;1.98;;;20.40;43.90;;;;;;5170580;27;46331;-69
2023/12/16 10:51:58;;;;;;;3.58;2.17;;;20.40;43.60;;;;;;5168774;27;45370;-70
2023/12/16 10:54:31;;;;;;;7.03;5.40;;;20.40;43.60;;;;;;5165608;27;45436;-68
2023/12/16 10:57:02;;;;;;;6.45;4.93;;;20.40;43.60;;;;;;5159459;27;45376;-68
2023/12/16 10:59:33;;;;;;;18.30;16.23;;;20.50;43.60;;;;;;5161362;27;46965;-73
2023/12/16 11:02:00;;;;;;;6.93;5.95;;;20.50;43.50;;;;;;5160872;27;45798;-67
2023/12/16 11:04:29;;;;;;;6.00;3.75;;;20.50;43.60;;;;;;5161709;27;45428;-67
2023/12/16 11:06:59;;;;;;;5.95;3.63;;;20.60;43.40;;;;;;5160565;27;45451;-68
2023/12/16 11:09:26;;;;;;;4.38;3.42;;;20.60;43.50;;;;;;5161420;27;46807;-68
2023/12/16 11:11:53;;;;;;;3.50;3.20;;;20.60;43.30;;;;;;5160711;27;45322;-67
2023/12/16 11:14:22;;;;;;;6.47;3.97;;;20.70;43.40;;;;;;5161098;27;45377;-64
2023/12/16 11:16:54;;;;;;;4.15;3.28;;;20.70;43.30;;;;;;5161168;27;45425;-65
2023/12/16 11:19:22;;;;;;;7.88;3.45;;;20.70;43.40;;;;;;5157749;27;46388;-65
2023/12/16 11:21:48;;;;;;;3.47;3.08;;;20.80;43.40;;;;;;5162868;27;45528;-64
2023/12/16 11:24:16;;;;;;;4.82;3.10;;;20.80;43.20;;;;;;5158823;27;45340;-63
2023/12/16 11:26:43;;;;;;;2.85;2.65;;;20.80;43.10;;;;;;5160669;27;45302;-64
2023/12/16 11:29:09;;;;;;;6.50;3.00;;;20.80;43.40;;;;;;5157853;27;46747;-63
2023/12/16 11:31:38;;;;;;;5.43;2.65;;;20.80;42.90;;;;;;5160081;27;45294;-66
2023/12/16 11:34:05;;;;;;;4.75;2.78;;;20.70;43.00;;;;;;5161939;27;45320;-68
2023/12/16 11:36:47;;;;;;;3.92;2.42;;;20.70;43.10;;;;;;5161297;27;45307;-73
2023/12/16 11:39:38;;;;;;;4.95;2.50;;;20.80;43.30;;;;;;5140915;27;46736;-65
2023/12/16 11:42:05;;;;;;;3.97;2.25;;;20.80;43.50;;;;;;5142392;27;45412;-67
2023/12/16 11:44:51;;;;;;;3.33;1.95;;;20.80;42.80;;;;;;5141612;27;45356;-74
2023/12/16 11:47:24;;;;;;;4.72;2.20;;;20.80;43.00;;;;;;5143351;27;45127;-68
2023/12/16 11:49:51;;;;;;;11.00;2.95;;;20.80;43.20;;;;;;5141027;27;46925;-63
2023/12/16 11:52:18;;;;;;;4.75;3.03;;;20.90;43.40;;;;;;5135770;27;45308;-68
2023/12/16 11:54:45;;;;;;;7.45;4.95;;;20.90;43.50;;;;;;5135754;27;45413;-63
2023/12/16 11:57:12;;;;;;;6.20;3.00;;;21.00;43.30;;;;;;5138709;27;45356;-66
2023/12/16 11:59:39;;;;;;;4.22;2.38;;;21.10;43.40;;;;;;5136295;27;46428;-66
2023/12/16 12:02:06;;;;;;;3.42;3.03;;;21.20;43.80;;;;;;5142803;27;45492;-65
2023/12/16 12:04:35;;;;;;;6.63;2.92;;;21.20;43.10;;;;;;5139803;27;45276;-66
2023/12/16 12:07:02;;;;;;;2.60;2.22;;;21.20;43.10;;;;;;5138927;27;45423;-65
2023/12/16 12:09:28;;;;;;;4.03;2.50;;;21.10;42.90;;;;;;5141108;27;45554;-64
2023/12/16 12:11:57;;;;;;;3.55;2.65;;;21.10;42.80;;;;;;5134705;27;45514;-64
2023/12/16 12:14:25;;;;;;;2.67;2.30;;;21.20;42.80;;;;;;5135571;27;45376;-64
2023/12/16 12:16:52;;;;;;;3.95;2.17;;;21.30;42.60;;;;;;5139717;27;45451;-65
2023/12/16 12:19:19;;;;;;;3.40;2.03;;;21.40;42.50;;;;;;5139379;27;48837;-65
2023/12/16 12:21:47;;;;;;;2.70;1.95;;;21.40;42.50;;;;;;5137609;27;45320;-66
2023/12/16 12:24:14;;;;;;;3.28;2.60;;;21.40;42.50;;;;;;5140874;27;45359;-65
2023/12/16 12:26:41;;;;;;;10.38;3.20;;;21.30;42.70;;;;;;5136358;27;45427;-67
2023/12/16 12:29:08;;;;;;;9.25;3.00;;;21.30;42.80;;;;;;5139572;27;46411;-67
2023/12/16 12:31:42;;;;;;;9.25;3.13;;;21.20;43.00;;;;;;5136380;27;45462;-65
2023/12/16 12:34:11;;;;;;;12.65;3.20;;;21.10;43.20;;;;;;5139192;27;45342;-65
2023/12/16 12:36:38;;;;;;;6.38;2.92;;;21.00;43.50;;;;;;5139887;27;45596;-65
2023/12/16 12:39:06;;;;;;;6.68;2.80;;;20.90;43.50;;;;;;5141016;27;45426;-65
2023/12/16 12:41:33;;;;;;;11.82;2.75;;;20.80;43.70;;;;;;5151082;27;45441;-65
2023/12/16 12:44:00;;;;;;;4.63;2.67;;;20.80;43.80;;;;;;5156464;27;45460;-65
2023/12/16 12:46:27;;;;;;;10.88;2.63;;;20.70;43.80;;;;;;5155745;27;45447;-66